Amparo Paola — XCDC9 — position and weather

sailwx.info

Track history (hours):
 
Tides and Currents Weather Stations Pressure Air Temp Water Temp Dewpoint Dewpoint Depression Visibility Wind Speed Wind Dir Waves Ship Positions

Amparo Paola

Last reported at 2017-Sep-14 08:14 UTC. Time now 2017-Sep-23 16:32 UTC.
Position N 19°43' W 096°13'.
Warning: this ship's position is 9 days out of date.

Length 136 m; draft 5.7 m.

Type: Cargo ship. MMSI: 345010030.

Date/timePositionNaut miles runAvg speedWind from/ knotsBaromVisibWave heightAir tempDewpointWater temp
2017-Sep-14 08:14N 19°43' W 096°13'313.3
2017-Sep-14 08:00N 19°40' W 096°11'713.0
2017-Sep-14 07:30N 19°34' W 096°08'713.4
2017-Sep-14 07:00N 19°29' W 096°04'713.5
2017-Sep-14 06:30N 19°24' W 095°59'713.8
2017-Sep-14 06:01N 19°20' W 095°53'713.7
2017-Sep-14 05:30N 19°16' W 095°47'713.8
2017-Sep-14 04:59N 19°12' W 095°41'913.4
2017-Sep-14 04:19N 19°07' W 095°33'513.3
2017-Sep-14 03:58N 19°04' W 095°29'613.2
2017-Sep-14 03:30N 19°01' W 095°24'713.0
2017-Sep-14 03:00N 18°57' W 095°18'1112.6
2017-Sep-14 02:09N 18°51' W 095°09'212.6
2017-Sep-14 02:00N 18°50' W 095°07'2212.4
2017-Sep-14 00:13N 18°38' W 094°48'  
Track history (hours):
 
Tides and Currents Weather Stations Pressure Air Temp Water Temp Dewpoint Dewpoint Depression Visibility Wind Speed Wind Dir Waves Ship Positions

Amparo Paola

Last reported at 2017-Sep-14 08:14 UTC. Time now 2017-Sep-23 16:32 UTC.
Position N 19°43' W 096°13'.
Warning: this ship's position is 9 days out of date.

Length 136 m; draft 5.7 m.

Type: Cargo ship. MMSI: 345010030.

Date/timePositionNaut miles runAvg speedWind from/ knotsBaromVisibWave heightAir tempDewpointWater temp
2017-Sep-14 08:14N 19°43' W 096°13'313.3
2017-Sep-14 08:00N 19°40' W 096°11'713.0
2017-Sep-14 07:30N 19°34' W 096°08'713.4
2017-Sep-14 07:00N 19°29' W 096°04'713.5
2017-Sep-14 06:30N 19°24' W 095°59'713.8
2017-Sep-14 06:01N 19°20' W 095°53'713.7
2017-Sep-14 05:30N 19°16' W 095°47'713.8
2017-Sep-14 04:59N 19°12' W 095°41'913.4
2017-Sep-14 04:19N 19°07' W 095°33'513.3
2017-Sep-14 03:58N 19°04' W 095°29'613.2
2017-Sep-14 03:30N 19°01' W 095°24'713.0
2017-Sep-14 03:00N 18°57' W 095°18'1112.6
2017-Sep-14 02:09N 18°51' W 095°09'212.6
2017-Sep-14 02:00N 18°50' W 095°07'2212.4
2017-Sep-14 00:13N 18°38' W 094°48'  

Dump ship's entire track history